Aaron Joseph — WCV9877 — position and weather

sailwx.info

Track history (hours):
 
Tides and Currents Weather Stations Pressure Air Temp Water Temp Dewpoint Dewpoint Depression Visibility Wind Speed Wind Dir Waves Ship Positions

Aaron Joseph

Owner: AARON JOSEPH INC, GOLDEN MEADOW, LA. More information available from US FCC via Universal Licensing System and Coast Guard Vessel Documentation Center.

Last reported at 2016-Sep-27 23:33 UTC. Time now 2016-Oct-01 07:01 UTC.
Position N 29°32' W 090°50'.

; draft 2.5 m.

Type: Tug. MMSI: 367028680.

Date/timePositionNaut miles runAvg speedWind from/ knotsBaromVisibWave heightAir tempDewpointWater temp
2016-Sep-27 23:33N 29°32' W 090°50'12 3.1
2016-Sep-27 19:33N 29°35' W 090°36'0 0.0
2016-Sep-27 14:31N 29°35' W 090°36'0 0.0
2016-Sep-27 13:33N 29°35' W 090°36'0 0.0
2016-Sep-27 10:33N 29°35' W 090°36'0 0.0
2016-Sep-27 00:33N 29°35' W 090°36'0 0.0
2016-Sep-26 20:33N 29°35' W 090°36'0 0.3
2016-Sep-26 19:33N 29°35' W 090°36'0 0.1
2016-Sep-26 15:33N 29°35' W 090°36'0 0.0
2016-Sep-26 13:33N 29°35' W 090°36'0 0.0
2016-Sep-26 11:33N 29°35' W 090°36'0 0.0
2016-Sep-26 08:33N 29°35' W 090°36'0 0.0
2016-Sep-26 02:33N 29°35' W 090°36'0 0.0
2016-Sep-26 01:27N 29°35' W 090°36'0 0.0
2016-Sep-26 00:33N 29°35' W 090°36'0 0.0
2016-Sep-25 21:31N 29°35' W 090°36'0 0.0
2016-Sep-25 17:19N 29°35' W 090°36'0 0.0
2016-Sep-25 16:33N 29°35' W 090°36'0 0.0
2016-Sep-25 15:24N 29°35' W 090°36'0 0.0
2016-Sep-25 14:23N 29°35' W 090°36'0 0.0
2016-Sep-25 12:23N 29°35' W 090°36'0 0.0
2016-Sep-25 11:32N 29°35' W 090°36'0 0.0
2016-Sep-25 10:30N 29°35' W 090°36'0 0.0
2016-Sep-25 09:33N 29°35' W 090°36'0 0.0
2016-Sep-25 07:33N 29°35' W 090°36'0 0.0
2016-Sep-25 04:33N 29°35' W 090°36'0 0.0
2016-Sep-24 21:21N 29°35' W 090°36'0 0.0
2016-Sep-24 19:33N 29°35' W 090°36'0 0.0
2016-Sep-24 18:32N 29°35' W 090°36'4 4.0
2016-Sep-24 17:33N 29°36' W 090°40'0 0.4
2016-Sep-24 16:33N 29°36' W 090°40'11 5.5
2016-Sep-24 14:33N 29°33' W 090°27'  
2016-Sep-22 00:27N 29°34' W 090°30'6 6.3
2016-Sep-21 23:33N 29°35' W 090°36'4 4.0
2016-Sep-21 22:33N 29°36' W 090°40'0 0.0
2016-Sep-21 19:33N 29°36' W 090°40'0 0.1
2016-Sep-21 16:33N 29°36' W 090°40'0 0.1
2016-Sep-21 09:33N 29°36' W 090°40'0 0.0
2016-Sep-21 08:33N 29°36' W 090°40'0 0.0
2016-Sep-21 05:33N 29°36' W 090°40'0 0.0
2016-Sep-21 03:33N 29°36' W 090°40'0 0.0
2016-Sep-21 02:33N 29°36' W 090°40'10 1.2
2016-Sep-20 17:33N 29°26' W 090°43'11 2.7
2016-Sep-20 13:20N 29°15' W 090°40'0 0.2
2016-Sep-20 10:23N 29°15' W 090°40'0 0.0
2016-Sep-20 08:33N 29°15' W 090°40'0 0.0
2016-Sep-20 07:28N 29°15' W 090°40'0 0.0
2016-Sep-20 06:33N 29°15' W 090°40'1 0.1
2016-Sep-19 12:33N 29°14' W 090°40'  
Track history (hours):
 
Tides and Currents Weather Stations Pressure Air Temp Water Temp Dewpoint Dewpoint Depression Visibility Wind Speed Wind Dir Waves Ship Positions

Aaron Joseph

Owner: AARON JOSEPH INC, GOLDEN MEADOW, LA. More information available from US FCC via Universal Licensing System and Coast Guard Vessel Documentation Center.

Last reported at 2016-Sep-27 23:33 UTC. Time now 2016-Oct-01 07:01 UTC.
Position N 29°32' W 090°50'.

; draft 2.5 m.

Type: Tug. MMSI: 367028680.

Date/timePositionNaut miles runAvg speedWind from/ knotsBaromVisibWave heightAir tempDewpointWater temp
2016-Sep-27 23:33N 29°32' W 090°50'12 3.1
2016-Sep-27 19:33N 29°35' W 090°36'0 0.0
2016-Sep-27 14:31N 29°35' W 090°36'0 0.0
2016-Sep-27 13:33N 29°35' W 090°36'0 0.0
2016-Sep-27 10:33N 29°35' W 090°36'0 0.0
2016-Sep-27 00:33N 29°35' W 090°36'0 0.0
2016-Sep-26 20:33N 29°35' W 090°36'0 0.3
2016-Sep-26 19:33N 29°35' W 090°36'0 0.1
2016-Sep-26 15:33N 29°35' W 090°36'0 0.0
2016-Sep-26 13:33N 29°35' W 090°36'0 0.0
2016-Sep-26 11:33N 29°35' W 090°36'0 0.0
2016-Sep-26 08:33N 29°35' W 090°36'0 0.0
2016-Sep-26 02:33N 29°35' W 090°36'0 0.0
2016-Sep-26 01:27N 29°35' W 090°36'0 0.0
2016-Sep-26 00:33N 29°35' W 090°36'0 0.0
2016-Sep-25 21:31N 29°35' W 090°36'0 0.0
2016-Sep-25 17:19N 29°35' W 090°36'0 0.0
2016-Sep-25 16:33N 29°35' W 090°36'0 0.0
2016-Sep-25 15:24N 29°35' W 090°36'0 0.0
2016-Sep-25 14:23N 29°35' W 090°36'0 0.0
2016-Sep-25 12:23N 29°35' W 090°36'0 0.0
2016-Sep-25 11:32N 29°35' W 090°36'0 0.0
2016-Sep-25 10:30N 29°35' W 090°36'0 0.0
2016-Sep-25 09:33N 29°35' W 090°36'0 0.0
2016-Sep-25 07:33N 29°35' W 090°36'0 0.0
2016-Sep-25 04:33N 29°35' W 090°36'0 0.0
2016-Sep-24 21:21N 29°35' W 090°36'0 0.0
2016-Sep-24 19:33N 29°35' W 090°36'0 0.0
2016-Sep-24 18:32N 29°35' W 090°36'4 4.0
2016-Sep-24 17:33N 29°36' W 090°40'0 0.4
2016-Sep-24 16:33N 29°36' W 090°40'11 5.5
2016-Sep-24 14:33N 29°33' W 090°27'  
2016-Sep-22 00:27N 29°34' W 090°30'6 6.3
2016-Sep-21 23:33N 29°35' W 090°36'4 4.0
2016-Sep-21 22:33N 29°36' W 090°40'0 0.0
2016-Sep-21 19:33N 29°36' W 090°40'0 0.1
2016-Sep-21 16:33N 29°36' W 090°40'0 0.1
2016-Sep-21 09:33N 29°36' W 090°40'0 0.0
2016-Sep-21 08:33N 29°36' W 090°40'0 0.0
2016-Sep-21 05:33N 29°36' W 090°40'0 0.0
2016-Sep-21 03:33N 29°36' W 090°40'0 0.0
2016-Sep-21 02:33N 29°36' W 090°40'10 1.2
2016-Sep-20 17:33N 29°26' W 090°43'11 2.7
2016-Sep-20 13:20N 29°15' W 090°40'0 0.2
2016-Sep-20 10:23N 29°15' W 090°40'0 0.0
2016-Sep-20 08:33N 29°15' W 090°40'0 0.0
2016-Sep-20 07:28N 29°15' W 090°40'0 0.0
2016-Sep-20 06:33N 29°15' W 090°40'1 0.1
2016-Sep-19 12:33N 29°14' W 090°40'  

Dump ship's entire track history